Time;durP1;ratioP1;P1;durP2;ratioP2;P2;SDS_P1;SDS_P2;PMS_P1;PMS_P2;Temp;Humidity;BMP_temperature;BMP_pressure;BME280_temperature;BME280_humidity;BME280_pressure;Samples;Min_cycle;Max_cycle;Signal;HPM_P1;HPM_P2
2021/06/13 00:00:26;;;;;;;4.30;3.00;;;16.60;1.00;;;;;;5073747;28;20211;-66
2021/06/13 00:02:51;;;;;;;4.00;2.87;;;16.60;1.00;;;;;;5073696;28;20447;-68
2021/06/13 00:05:18;;;;;;;2.63;2.43;;;16.70;1.00;;;;;;5074110;28;20200;-67
2021/06/13 00:07:44;;;;;;;3.20;2.40;;;16.60;1.00;;;;;;5074393;28;20194;-67
2021/06/13 00:10:11;;;;;;;3.80;2.90;;;16.50;1.00;;;;;;5093943;28;20436;-67
2021/06/13 00:12:37;;;;;;;3.50;2.17;;;16.50;1.00;;;;;;5094059;28;20213;-67
2021/06/13 00:15:05;;;;;;;6.53;2.60;;;16.30;1.00;;;;;;5081227;28;20434;-67
2021/06/13 00:17:31;;;;;;;4.17;2.60;;;16.30;1.00;;;;;;5072066;28;20195;-67
2021/06/13 00:19:56;;;;;;;3.27;2.40;;;16.20;1.00;;;;;;5073915;28;20433;-66
2021/06/13 00:22:22;;;;;;;4.27;3.23;;;16.20;1.00;;;;;;5073662;28;20249;-66
2021/06/13 00:24:47;;;;;;;3.83;2.90;;;16.20;1.00;;;;;;5073407;28;20183;-67
2021/06/13 00:27:13;;;;;;;3.83;2.60;;;16.20;1.00;;;;;;5073408;28;20647;-66
2021/06/13 00:29:38;;;;;;;2.87;2.60;;;16.20;1.00;;;;;;5073088;28;20187;-66
2021/06/13 00:32:04;;;;;;;3.20;2.90;;;16.10;1.00;;;;;;5073382;28;20211;-66
2021/06/13 00:34:30;;;;;;;9.13;3.07;;;16.10;1.00;;;;;;5071557;28;20183;-66
2021/06/13 00:36:56;;;;;;;3.17;2.53;;;16.00;1.00;;;;;;5072993;28;20436;-66
2021/06/13 00:39:21;;;;;;;7.80;2.60;;;16.00;1.00;;;;;;5073071;28;20179;-64
2021/06/13 00:41:47;;;;;;;4.40;2.90;;;16.00;1.00;;;;;;5073420;28;20264;-67
2021/06/13 00:44:12;;;;;;;3.10;2.60;;;15.90;1.00;;;;;;5072996;28;20198;-67
2021/06/13 00:46:40;;;;;;;6.90;2.63;;;15.80;1.00;;;;;;5073053;28;20187;-66
2021/06/13 00:49:06;;;;;;;5.57;2.93;;;15.70;1.00;;;;;;5072915;28;20172;-67
2021/06/13 00:51:32;;;;;;;5.77;3.57;;;15.70;1.00;;;;;;5072790;28;21058;-65
2021/06/13 00:53:58;;;;;;;7.37;3.20;;;15.70;1.00;;;;;;5072940;28;20540;-66
2021/06/13 00:56:23;;;;;;;4.87;3.23;;;15.60;1.00;;;;;;5078328;28;20271;-66
2021/06/13 00:58:50;;;;;;;5.20;2.90;;;15.60;1.00;;;;;;5092716;28;20170;-67
2021/06/13 01:01:15;;;;;;;5.57;3.27;;;15.70;1.00;;;;;;5093474;28;20186;-67
2021/06/13 01:03:43;;;;;;;3.03;2.70;;;15.70;1.00;;;;;;5092765;28;20455;-66
2021/06/13 01:06:09;;;;;;;4.50;2.80;;;15.60;1.00;;;;;;5091817;28;20654;-66
2021/06/13 01:08:55;;;;;;;4.93;2.77;;;15.40;1.00;;;;;;5072563;28;20441;-66
2021/06/13 01:11:46;;;;;;;5.10;3.30;;;15.50;1.00;;;;;;5072688;28;20457;-68
2021/06/13 01:14:38;;;;;;;6.00;3.10;;;15.60;1.00;;;;;;5072636;28;20437;-66
2021/06/13 01:17:29;;;;;;;5.13;3.30;;;15.50;1.00;;;;;;5058545;28;20912;-66
2021/06/13 01:20:26;;;;;;;6.67;3.50;;;15.40;1.00;;;;;;5092359;28;20515;-66
2021/06/13 01:23:06;;;;;;;7.83;3.40;;;15.30;1.00;;;;;;5092580;28;20464;-66
2021/06/13 01:25:57;;;;;;;5.00;2.70;;;15.40;1.00;;;;;;5092584;28;20432;-66
2021/06/13 01:29:16;;;;;;;3.23;2.93;;;15.10;1.00;;;;;;5085284;28;20548;-67
2021/06/13 01:31:56;;;;;;;3.30;3.00;;;15.10;1.00;;;;;;5029703;28;20474;-66
2021/06/13 01:34:39;;;;;;;5.77;3.00;;;15.10;1.00;;;;;;5063802;28;20434;-66
2021/06/13 01:37:08;;;;;;;9.90;3.10;;;15.20;1.00;;;;;;5071705;28;20429;-66
2021/06/13 01:39:38;;;;;;;6.20;2.83;;;15.10;1.00;;;;;;5072088;28;20926;-67
2021/06/13 01:42:04;;;;;;;5.27;3.30;;;15.20;1.00;;;;;;5071901;28;20980;-65
2021/06/13 01:44:31;;;;;;;5.80;3.10;;;15.10;1.00;;;;;;5072057;28;20436;-67
2021/06/13 01:47:00;;;;;;;4.57;3.37;;;15.00;1.00;;;;;;5071163;28;20441;-67
2021/06/13 01:49:27;;;;;;;3.57;3.17;;;15.00;1.00;;;;;;5072076;28;20462;-67
2021/06/13 01:51:53;;;;;;;4.03;2.80;;;14.90;1.00;;;;;;5071670;28;20969;-67
2021/06/13 01:54:20;;;;;;;6.10;3.40;;;14.80;1.00;;;;;;5071795;28;20429;-66
2021/06/13 01:56:49;;;;;;;8.67;4.13;;;14.70;1.00;;;;;;5071891;28;20262;-66
2021/06/13 01:59:17;;;;;;;5.00;3.47;;;14.60;1.00;;;;;;5071625;28;20433;-66
2021/06/13 02:01:44;;;;;;;9.03;4.40;;;14.70;1.00;;;;;;5071674;28;20441;-65
2021/06/13 02:04:11;;;;;;;5.13;3.40;;;14.70;1.00;;;;;;5071309;28;20803;-66
2021/06/13 02:06:42;;;;;;;5.33;3.60;;;14.70;1.00;;;;;;5071408;28;20469;-68
2021/06/13 02:09:09;;;;;;;6.00;3.67;;;14.70;1.00;;;;;;5071158;28;20464;-66
2021/06/13 02:11:39;;;;;;;6.70;3.40;;;14.70;1.00;;;;;;5073937;28;20572;-66
2021/06/13 02:14:04;;;;;;;4.73;3.40;;;14.60;1.00;;;;;;5091364;28;20944;-66
2021/06/13 02:16:31;;;;;;;8.10;3.53;;;14.60;1.00;;;;;;5082440;28;20520;-66
2021/06/13 02:18:59;;;;;;;7.57;3.90;;;14.60;1.00;;;;;;5083998;28;20258;-66
2021/06/13 02:21:27;;;;;;;10.57;4.30;;;14.60;1.00;;;;;;5091380;28;20435;-67
2021/06/13 02:23:55;;;;;;;3.83;3.40;;;14.70;1.00;;;;;;5091358;28;20969;-67
2021/06/13 02:26:20;;;;;;;6.17;3.37;;;14.60;1.00;;;;;;5091086;28;20940;-66
2021/06/13 02:28:56;;;;;;;7.43;3.90;;;14.60;1.00;;;;;;5091078;28;20463;-67
2021/06/13 02:31:29;;;;;;;3.70;3.40;;;14.70;1.00;;;;;;5091029;28;20214;-66
2021/06/13 02:33:57;;;;;;;6.30;3.93;;;14.60;1.00;;;;;;5076846;28;20449;-67
2021/06/13 02:36:24;;;;;;;6.53;3.70;;;14.50;1.00;;;;;;5090402;28;20490;-68
2021/06/13 02:38:54;;;;;;;7.80;4.40;;;14.50;1.00;;;;;;5091244;28;20452;-66
2021/06/13 02:41:20;;;;;;;4.93;3.20;;;14.60;1.00;;;;;;5088672;28;20444;-65
2021/06/13 02:43:46;;;;;;;5.80;3.97;;;14.40;1.00;;;;;;5070908;28;20961;-66
2021/06/13 02:46:11;;;;;;;4.13;3.03;;;14.50;1.00;;;;;;5066962;28;20524;-67
2021/06/13 02:48:37;;;;;;;6.93;4.07;;;14.50;1.00;;;;;;5071135;28;21135;-67
2021/06/13 02:51:03;;;;;;;6.87;3.80;;;14.40;1.00;;;;;;5070578;28;20258;-67
2021/06/13 02:53:43;;;;;;;10.00;4.10;;;14.40;1.00;;;;;;5070389;28;20541;-65
2021/06/13 02:56:27;;;;;;;6.70;4.20;;;14.40;1.00;;;;;;5070575;28;20175;-66
2021/06/13 02:59:23;;;;;;;6.27;3.80;;;14.40;1.00;;;;;;5070581;28;20867;-65
2021/06/13 03:01:52;;;;;;;5.80;4.33;;;14.40;1.00;;;;;;5043751;28;20445;-65
2021/06/13 03:04:19;;;;;;;8.40;3.63;;;14.50;1.00;;;;;;5070405;28;20450;-65
2021/06/13 03:06:52;;;;;;;7.33;4.40;;;14.50;1.00;;;;;;5070500;28;22028;-66
2021/06/13 03:09:18;;;;;;;11.33;3.80;;;14.50;1.00;;;;;;5070579;28;20544;-66
2021/06/13 03:11:45;;;;;;;6.33;3.10;;;14.60;1.00;;;;;;5070299;28;20462;-66
2021/06/13 03:14:13;;;;;;;5.53;3.37;;;14.60;1.00;;;;;;5070462;28;20434;-66
2021/06/13 03:16:39;;;;;;;4.93;3.67;;;14.50;1.00;;;;;;5070398;28;20439;-66
2021/06/13 03:19:07;;;;;;;6.30;3.17;;;14.60;1.00;;;;;;5074053;28;20433;-67
2021/06/13 03:21:32;;;;;;;7.13;3.53;;;14.40;1.00;;;;;;5090407;28;20812;-65
2021/06/13 03:23:59;;;;;;;5.33;3.50;;;14.50;1.00;;;;;;5075603;28;20450;-66
2021/06/13 03:26:26;;;;;;;5.40;3.60;;;14.50;1.00;;;;;;5070221;28;20658;-68
2021/06/13 03:28:54;;;;;;;3.93;2.87;;;14.50;1.00;;;;;;5070126;28;20465;-66
2021/06/13 03:31:21;;;;;;;4.30;3.17;;;14.50;1.00;;;;;;5070234;28;20607;-65
2021/06/13 03:33:48;;;;;;;5.13;3.10;;;14.50;1.00;;;;;;5070120;28;20429;-67
2021/06/13 03:36:15;;;;;;;5.50;2.90;;;14.60;1.00;;;;;;5068503;28;20522;-67
2021/06/13 03:38:43;;;;;;;4.63;2.80;;;14.90;1.00;;;;;;5070173;28;20491;-67
2021/06/13 03:41:10;;;;;;;7.03;3.53;;;14.90;1.00;;;;;;5070346;28;20467;-66
2021/06/13 03:43:35;;;;;;;5.50;3.50;;;14.90;1.00;;;;;;5070475;28;20441;-66
2021/06/13 03:46:02;;;;;;;5.07;2.80;;;14.90;1.00;;;;;;5068610;28;20434;-67
2021/06/13 03:48:29;;;;;;;6.30;2.80;;;15.10;1.00;;;;;;5070292;28;20668;-68
2021/06/13 03:50:56;;;;;;;6.70;3.20;;;15.30;1.00;;;;;;5069883;28;20922;-66
2021/06/13 03:53:22;;;;;;;4.97;3.50;;;15.50;1.00;;;;;;5083412;28;20440;-67
2021/06/13 03:55:49;;;;;;;6.80;4.60;;;15.50;1.00;;;;;;5088910;28;20471;-66
2021/06/13 03:58:16;;;;;;;5.40;2.97;;;15.40;1.00;;;;;;5089849;28;20429;-67
2021/06/13 04:00:44;;;;;;;5.67;2.80;;;15.30;1.00;;;;;;5073331;28;20429;-66
2021/06/13 04:03:10;;;;;;;6.63;3.37;;;15.30;1.00;;;;;;5068835;28;20460;-66
2021/06/13 04:05:39;;;;;;;5.67;3.80;;;15.30;1.00;;;;;;5070201;28;20498;-66
2021/06/13 04:08:08;;;;;;;7.50;3.27;;;15.20;1.00;;;;;;5068691;28;20922;-67
2021/06/13 04:10:35;;;;;;;4.70;3.13;;;15.20;1.00;;;;;;5073775;28;20434;-66
2021/06/13 04:13:02;;;;;;;5.00;3.10;;;15.20;1.00;;;;;;5072084;28;20467;-66
2021/06/13 04:15:28;;;;;;;5.17;3.40;;;15.20;1.00;;;;;;5086158;28;20582;-66
2021/06/13 04:17:54;;;;;;;7.90;3.50;;;15.10;1.00;;;;;;5093984;28;20433;-66
2021/06/13 04:20:20;;;;;;;3.83;2.90;;;15.10;1.00;;;;;;5093568;28;20431;-66
2021/06/13 04:22:46;;;;;;;6.27;3.57;;;15.00;1.00;;;;;;5093876;28;20519;-67
2021/06/13 04:25:13;;;;;;;5.83;3.07;;;15.00;1.00;;;;;;5092199;28;20551;-65
2021/06/13 04:27:39;;;;;;;6.80;3.40;;;15.10;1.00;;;;;;5093426;28;20293;-67
2021/06/13 04:30:08;;;;;;;6.33;2.73;;;15.10;1.00;;;;;;5093386;28;20443;-66
2021/06/13 04:32:34;;;;;;;4.70;3.20;;;15.10;1.00;;;;;;5075139;28;20469;-66
2021/06/13 04:35:00;;;;;;;8.50;3.23;;;15.10;1.00;;;;;;5071865;28;20489;-66
2021/06/13 04:37:26;;;;;;;3.77;2.50;;;15.00;1.00;;;;;;5073126;28;20466;-67
2021/06/13 04:39:52;;;;;;;5.17;2.97;;;16.50;1.00;;;;;;5073193;28;20182;-67
2021/06/13 04:42:17;;;;;;;6.80;2.73;;;15.10;1.00;;;;;;5072773;28;21021;-66
2021/06/13 04:44:43;;;;;;;6.13;3.43;;;15.10;1.00;;;;;;5073337;28;20525;-66
2021/06/13 04:47:10;;;;;;;5.17;3.30;;;15.00;1.00;;;;;;5072914;28;20973;-65
2021/06/13 04:49:37;;;;;;;6.30;3.00;;;15.00;1.00;;;;;;5072912;28;20243;-67
2021/06/13 04:52:05;;;;;;;4.47;3.80;;;15.10;1.00;;;;;;5072774;28;20471;-67
2021/06/13 04:54:35;;;;;;;6.60;3.50;;;15.00;1.00;;;;;;5073143;28;20419;-67
2021/06/13 04:57:21;;;;;;;5.37;3.13;;;15.10;1.00;;;;;;5072934;28;20537;-66
2021/06/13 04:59:46;;;;;;;6.63;3.07;;;15.20;1.00;;;;;;5056702;28;20438;-67
2021/06/13 05:02:13;;;;;;;5.63;3.50;;;15.20;1.00;;;;;;5072572;28;20478;-66
2021/06/13 05:04:39;;;;;;;5.10;3.30;;;15.30;1.00;;;;;;5072324;28;20642;-66
2021/06/13 05:07:05;;;;;;;7.40;3.50;;;15.50;1.00;;;;;;5072651;28;20516;-66
2021/06/13 05:09:32;;;;;;;10.23;3.63;;;15.40;1.00;;;;;;5072549;28;20632;-67
2021/06/13 05:11:57;;;;;;;8.50;3.47;;;15.40;1.00;;;;;;5071265;28;20453;-66
2021/06/13 05:14:23;;;;;;;6.87;3.00;;;15.30;1.00;;;;;;5073336;28;20887;-66
2021/06/13 05:16:48;;;;;;;7.90;3.20;;;15.30;1.00;;;;;;5092662;28;20591;-66
2021/06/13 05:19:14;;;;;;;11.50;4.33;;;15.30;1.00;;;;;;5092212;28;20659;-66
2021/06/13 05:21:39;;;;;;;4.90;3.27;;;15.50;1.00;;;;;;5091492;28;20692;-66
2021/06/13 05:24:06;;;;;;;7.00;3.80;;;15.60;1.00;;;;;;5092693;28;20206;-66
2021/06/13 05:26:31;;;;;;;4.00;3.20;;;15.70;1.00;;;;;;5092186;28;20175;-66
2021/06/13 05:28:58;;;;;;;8.17;3.77;;;15.80;1.00;;;;;;5092571;28;20821;-66
2021/06/13 05:31:23;;;;;;;5.83;3.00;;;15.80;1.00;;;;;;5092392;28;20233;-67
2021/06/13 05:33:49;;;;;;;7.17;3.90;;;15.90;1.00;;;;;;5092296;28;20520;-66
2021/06/13 05:36:15;;;;;;;6.10;3.13;;;15.80;1.00;;;;;;5092048;28;20236;-67
2021/06/13 05:38:42;;;;;;;10.33;3.97;;;15.80;1.00;;;;;;5085255;28;20654;-66
2021/06/13 05:41:09;;;;;;;6.70;3.10;;;15.90;1.00;;;;;;5092061;28;20627;-66
2021/06/13 05:43:34;;;;;;;6.63;3.40;;;16.00;1.00;;;;;;5091268;28;20432;-66
2021/06/13 05:46:02;;;;;;;9.57;3.93;;;16.00;1.00;;;;;;5071947;28;20503;-67
2021/06/13 05:48:28;;;;;;;8.17;3.43;;;15.90;1.00;;;;;;5071757;28;20178;-67
2021/06/13 05:50:54;;;;;;;10.83;3.40;;;15.90;1.00;;;;;;5071447;28;20462;-66
2021/06/13 05:53:19;;;;;;;8.07;3.40;;;15.90;1.00;;;;;;5071685;28;20480;-66
2021/06/13 05:55:45;;;;;;;12.90;3.27;;;15.60;1.00;;;;;;5071705;28;20585;-68
2021/06/13 05:58:11;;;;;;;7.77;3.80;;;15.50;1.00;;;;;;5071933;28;20176;-66
2021/06/13 06:00:38;;;;;;;6.27;3.80;;;15.50;1.00;;;;;;5071319;28;20202;-66
2021/06/13 06:03:04;;;;;;;5.83;3.30;;;15.70;1.00;;;;;;5071525;28;20183;-67
2021/06/13 06:05:32;;;;;;;4.43;3.10;;;15.90;1.00;;;;;;5071448;28;20939;-67
2021/06/13 06:07:58;;;;;;;8.83;3.20;;;16.00;1.00;;;;;;5071687;28;20463;-68
2021/06/13 06:10:25;;;;;;;5.60;3.47;;;16.20;1.00;;;;;;5072292;28;20438;-66
2021/06/13 06:12:53;;;;;;;8.13;3.70;;;16.20;1.00;;;;;;5091349;28;20551;-67
2021/06/13 06:15:20;;;;;;;6.43;2.63;;;16.20;1.00;;;;;;5091515;28;20949;-65
2021/06/13 06:17:47;;;;;;;6.50;3.47;;;16.00;1.00;;;;;;5091524;28;20424;-67
2021/06/13 06:20:15;;;;;;;4.30;2.90;;;15.90;1.00;;;;;;5091295;28;20425;-66
2021/06/13 06:22:41;;;;;;;4.60;2.60;;;16.00;1.00;;;;;;5091183;28;20524;-67
2021/06/13 06:25:08;;;;;;;5.73;3.23;;;15.90;1.00;;;;;;5091362;28;20586;-67
2021/06/13 06:27:34;;;;;;;4.60;2.80;;;16.00;1.00;;;;;;5089874;28;20202;-66
2021/06/13 06:30:00;;;;;;;8.43;2.90;;;16.20;1.00;;;;;;5091262;28;20960;-69
2021/06/13 06:32:26;;;;;;;8.70;3.27;;;16.10;1.00;;;;;;5090579;28;20960;-68
2021/06/13 06:34:52;;;;;;;8.27;3.07;;;16.30;1.00;;;;;;5091068;28;20444;-68
2021/06/13 06:37:17;;;;;;;7.90;2.80;;;16.40;1.00;;;;;;5084303;28;20175;-68
2021/06/13 06:39:43;;;;;;;10.70;3.17;;;16.40;1.00;;;;;;5069465;28;20190;-67
2021/06/13 06:42:09;;;;;;;5.00;2.83;;;16.50;1.00;;;;;;5070759;28;20637;-68
2021/06/13 06:44:34;;;;;;;4.30;2.77;;;16.50;1.00;;;;;;5070760;28;20187;-68
2021/06/13 06:47:02;;;;;;;8.70;2.87;;;16.30;1.00;;;;;;5070608;28;20189;-67
2021/06/13 06:49:29;;;;;;;7.77;3.20;;;16.30;1.00;;;;;;5070748;28;20184;-66
2021/06/13 06:51:55;;;;;;;8.80;3.57;;;16.40;1.00;;;;;;5070333;28;20549;-67
2021/06/13 06:54:21;;;;;;;6.60;2.70;;;16.60;1.00;;;;;;5069987;28;20473;-68
2021/06/13 06:56:46;;;;;;;3.43;2.47;;;16.70;1.00;;;;;;5070676;28;20576;-68
2021/06/13 06:59:12;;;;;;;5.13;2.80;;;16.70;1.00;;;;;;5070577;28;20256;-68
2021/06/13 07:01:38;;;;;;;8.77;3.20;;;16.80;1.00;;;;;;5070309;28;20594;-72
2021/06/13 07:04:04;;;;;;;6.63;2.77;;;16.60;1.00;;;;;;5076474;28;20187;-69
2021/06/13 07:06:29;;;;;;;6.03;2.80;;;16.50;1.00;;;;;;5071448;28;20425;-68
2021/06/13 07:08:55;;;;;;;4.90;2.83;;;16.50;1.00;;;;;;5070365;28;23142;-69
2021/06/13 07:11:21;;;;;;;9.50;3.10;;;16.50;1.00;;;;;;5070701;28;20211;-67
2021/06/13 07:13:46;;;;;;;3.63;2.60;;;16.20;1.00;;;;;;5070400;28;20633;-66
2021/06/13 07:16:12;;;;;;;5.63;2.80;;;16.30;1.00;;;;;;5068927;28;20190;-68
2021/06/13 07:18:39;;;;;;;8.40;3.30;;;16.50;1.00;;;;;;5070366;28;20548;-68
2021/06/13 07:21:05;;;;;;;6.77;2.80;;;16.70;1.00;;;;;;5090549;28;20247;-67
2021/06/13 07:23:31;;;;;;;7.07;3.60;;;16.60;1.00;;;;;;5090357;28;20437;-67
2021/06/13 07:25:56;;;;;;;5.00;2.60;;;16.50;1.00;;;;;;5075639;28;20795;-68
2021/06/13 07:28:22;;;;;;;4.07;2.50;;;16.50;1.00;;;;;;5069942;28;20219;-68
2021/06/13 07:30:48;;;;;;;6.97;3.03;;;16.50;1.00;;;;;;5070160;28;20180;-67
2021/06/13 07:33:14;;;;;;;5.57;2.40;;;16.40;1.00;;;;;;5069841;28;20672;-67
2021/06/13 07:35:39;;;;;;;5.50;2.87;;;16.40;1.00;;;;;;5070309;28;20499;-67
2021/06/13 07:38:05;;;;;;;4.47;2.87;;;16.50;1.00;;;;;;5069895;28;20190;-68
2021/06/13 07:40:32;;;;;;;9.10;2.90;;;16.40;1.00;;;;;;5069923;28;20180;-68
2021/06/13 07:42:57;;;;;;;8.63;2.90;;;16.40;1.00;;;;;;5070013;28;20702;-67
2021/06/13 07:45:23;;;;;;;6.20;3.30;;;16.40;1.00;;;;;;5078841;28;20432;-68
2021/06/13 07:47:49;;;;;;;3.83;2.70;;;16.70;1.00;;;;;;5093921;28;20194;-67
2021/06/13 07:50:17;;;;;;;6.57;2.87;;;17.10;1.00;;;;;;5094143;28;20423;-67
2021/06/13 07:52:44;;;;;;;6.70;2.60;;;17.00;1.00;;;;;;5094139;28;20983;-68
2021/06/13 07:55:11;;;;;;;6.87;2.77;;;17.00;1.00;;;;;;5093999;28;20433;-68
2021/06/13 07:57:37;;;;;;;5.83;2.50;;;17.20;1.00;;;;;;5092653;28;20433;-68
2021/06/13 08:00:08;;;;;;;3.10;2.10;;;17.30;1.00;;;;;;5093901;28;20855;-68
2021/06/13 08:02:33;;;;;;;7.43;2.97;;;17.40;1.00;;;;;;5093528;28;20190;-68
2021/06/13 08:05:07;;;;;;;5.47;2.93;;;17.40;1.00;;;;;;5070853;28;20490;-68
2021/06/13 08:07:33;;;;;;;6.30;3.00;;;17.30;1.00;;;;;;5073422;28;20190;-68
2021/06/13 08:09:58;;;;;;;4.80;3.33;;;17.30;1.00;;;;;;5073411;28;20469;-68
2021/06/13 08:12:24;;;;;;;10.13;3.00;;;17.40;1.00;;;;;;5073199;28;20264;-67
2021/06/13 08:14:50;;;;;;;5.50;2.80;;;17.40;1.00;;;;;;5073409;28;20522;-67
2021/06/13 08:17:15;;;;;;;8.33;3.10;;;17.20;1.00;;;;;;5073499;28;20179;-69
2021/06/13 08:19:41;;;;;;;5.20;3.33;;;17.20;1.00;;;;;;5073352;28;20445;-68
2021/06/13 08:22:06;;;;;;;5.63;3.20;;;17.20;1.00;;;;;;5073310;28;20211;-67
2021/06/13 08:24:33;;;;;;;5.87;2.93;;;17.00;1.00;;;;;;5072097;28;20268;-68
2021/06/13 08:26:59;;;;;;;12.80;2.97;;;16.90;1.00;;;;;;5073253;28;20261;-66
2021/06/13 08:29:25;;;;;;;7.50;3.43;;;16.90;1.00;;;;;;5072862;28;20992;-68
2021/06/13 08:31:50;;;;;;;8.20;2.80;;;16.70;1.00;;;;;;5073005;28;20465;-67
2021/06/13 08:34:16;;;;;;;7.97;3.10;;;16.60;1.00;;;;;;5073085;28;20600;-67
2021/06/13 08:36:41;;;;;;;4.13;2.60;;;16.50;1.00;;;;;;5071945;28;20178;-68
2021/06/13 08:39:07;;;;;;;5.30;2.67;;;16.50;1.00;;;;;;5072948;28;20176;-68
2021/06/13 08:41:32;;;;;;;4.20;2.83;;;16.50;1.00;;;;;;5072674;28;20187;-68
2021/06/13 08:43:59;;;;;;;6.83;3.20;;;17.60;1.00;;;;;;5072812;28;20237;-68
2021/06/13 08:46:25;;;;;;;4.10;3.03;;;16.60;1.00;;;;;;5073095;28;20552;-68
2021/06/13 08:48:52;;;;;;;3.87;3.00;;;16.50;1.00;;;;;;5082648;28;20793;-67
2021/06/13 08:51:18;;;;;;;8.33;3.40;;;16.40;1.00;;;;;;5094266;28;20536;-66
2021/06/13 08:53:44;;;;;;;4.63;3.53;;;16.30;1.00;;;;;;5094282;28;20444;-68
2021/06/13 08:56:17;;;;;;;7.90;3.27;;;16.20;1.00;;;;;;5094058;28;20437;-65
2021/06/13 08:58:43;;;;;;;6.00;3.40;;;16.20;1.00;;;;;;5094137;28;20466;-66
2021/06/13 09:01:10;;;;;;;7.37;2.97;;;16.40;1.00;;;;;;5093816;28;20514;-66
2021/06/13 09:03:37;;;;;;;5.77;2.53;;;16.70;1.00;;;;;;5084610;28;20564;-65
2021/06/13 09:06:03;;;;;;;6.60;3.00;;;17.00;1.00;;;;;;5085216;28;20425;-68
2021/06/13 09:08:37;;;;;;;8.00;3.10;;;17.30;1.00;;;;;;5092882;28;20516;-66
2021/06/13 09:11:04;;;;;;;12.87;3.13;;;17.10;1.00;;;;;;5092998;28;20489;-67
2021/06/13 09:13:30;;;;;;;7.77;3.00;;;17.00;1.00;;;;;;5084493;28;20469;-67
2021/06/13 09:15:59;;;;;;;5.83;3.03;;;17.00;1.00;;;;;;5079305;28;20465;-66
2021/06/13 09:18:41;;;;;;;6.40;2.87;;;17.00;1.00;;;;;;5073020;28;20441;-65
2021/06/13 09:21:11;;;;;;;4.47;2.57;;;17.10;1.00;;;;;;5072465;28;20974;-67
2021/06/13 09:23:38;;;;;;;5.37;3.10;;;17.10;1.00;;;;;;5072404;28;20499;-67
2021/06/13 09:26:09;;;;;;;6.30;2.90;;;17.20;1.00;;;;;;5070851;28;20433;-65
2021/06/13 09:28:41;;;;;;;5.60;3.10;;;17.30;1.00;;;;;;5072145;28;20450;-67
2021/06/13 09:31:15;;;;;;;3.17;2.30;;;17.60;1.00;;;;;;5071995;28;20430;-65
2021/06/13 09:33:42;;;;;;;4.47;2.87;;;17.70;1.00;;;;;;5072215;28;20444;-67
2021/06/13 09:36:09;;;;;;;3.50;2.50;;;17.80;1.00;;;;;;5072032;28;20705;-66
2021/06/13 09:38:37;;;;;;;5.10;3.77;;;17.80;1.00;;;;;;5072058;28;20856;-66
2021/06/13 09:41:10;;;;;;;4.60;3.80;;;17.70;1.00;;;;;;5084106;28;20433;-66
2021/06/13 09:43:47;;;;;;;4.67;2.33;;;17.90;1.00;;;;;;5085580;28;20937;-66
2021/06/13 09:46:16;;;;;;;7.40;3.10;;;18.00;1.00;;;;;;5069107;28;20431;-67
2021/06/13 09:48:44;;;;;;;5.63;3.20;;;19.60;1.00;;;;;;5071871;28;20449;-67
2021/06/13 09:51:27;;;;;;;6.93;3.00;;;18.20;1.00;;;;;;5071195;28;21016;-68
2021/06/13 09:53:56;;;;;;;7.53;3.20;;;18.00;1.00;;;;;;5071426;28;20434;-68
2021/06/13 09:56:49;;;;;;;5.90;3.00;;;17.80;1.00;;;;;;5071515;28;20796;-67
2021/06/13 09:59:26;;;;;;;5.93;3.13;;;17.30;1.00;;;;;;5068511;28;20424;-66
2021/06/13 10:01:53;;;;;;;4.80;2.70;;;17.40;1.00;;;;;;5070465;28;20464;-67
2021/06/13 10:04:19;;;;;;;7.37;3.07;;;17.30;1.00;;;;;;5071421;28;20462;-67
2021/06/13 10:06:48;;;;;;;6.83;2.70;;;17.60;1.00;;;;;;5070722;28;20449;-67
2021/06/13 10:09:14;;;;;;;6.33;3.00;;;18.00;1.00;;;;;;5071028;28;20425;-66
2021/06/13 10:11:40;;;;;;;6.10;2.93;;;18.20;1.00;;;;;;5071082;28;20988;-68
2021/06/13 10:14:13;;;;;;;7.13;2.80;;;18.10;1.00;;;;;;5069640;28;20525;-66
2021/06/13 10:16:51;;;;;;;5.50;2.73;;;18.70;1.00;;;;;;5081184;28;20508;-67
2021/06/13 10:19:27;;;;;;;4.80;2.20;;;17.70;1.00;;;;;;5090134;28;20819;-67
2021/06/13 10:22:02;;;;;;;4.57;2.10;;;17.50;1.00;;;;;;5083634;28;20429;-67
2021/06/13 10:24:34;;;;;;;4.83;2.60;;;17.20;1.00;;;;;;5070995;28;20433;-67
2021/06/13 10:27:06;;;;;;;6.00;2.53;;;17.40;1.00;;;;;;5070955;28;20798;-66
2021/06/13 10:29:37;;;;;;;3.70;2.20;;;17.30;1.00;;;;;;5071748;28;20884;-66
2021/06/13 10:32:05;;;;;;;4.90;2.53;;;17.40;1.00;;;;;;5070628;28;20505;-67
2021/06/13 10:34:32;;;;;;;7.70;3.07;;;17.40;1.00;;;;;;5070636;28;20429;-66
2021/06/13 10:37:00;;;;;;;5.23;3.00;;;17.20;1.00;;;;;;5070585;28;20433;-66
2021/06/13 10:39:28;;;;;;;3.90;2.53;;;17.10;1.00;;;;;;5070895;28;20502;-67
2021/06/13 10:41:55;;;;;;;6.00;3.03;;;17.20;1.00;;;;;;5070985;28;20566;-66
2021/06/13 10:44:23;;;;;;;8.87;2.67;;;17.20;1.00;;;;;;5069291;28;20460;-67
2021/06/13 10:46:52;;;;;;;4.80;2.70;;;19.30;1.00;;;;;;5070422;28;20773;-68
2021/06/13 10:49:35;;;;;;;6.10;2.30;;;17.20;1.00;;;;;;5069339;28;20438;-66
2021/06/13 10:52:04;;;;;;;6.00;2.67;;;17.40;1.00;;;;;;5070445;28;20512;-67
2021/06/13 10:54:32;;;;;;;4.80;2.40;;;17.60;1.00;;;;;;5070437;28;20444;-68
2021/06/13 10:57:04;;;;;;;5.73;3.20;;;17.60;1.00;;;;;;5070377;28;20440;-65
2021/06/13 10:59:34;;;;;;;5.00;3.03;;;18.10;1.00;;;;;;5070083;28;20440;-68
2021/06/13 11:02:09;;;;;;;3.50;2.40;;;18.20;1.00;;;;;;5071047;28;20437;-67
2021/06/13 11:04:50;;;;;;;9.93;3.30;;;18.10;1.00;;;;;;5070564;28;20432;-66
2021/06/13 11:07:34;;;;;;;9.80;3.33;;;18.10;1.00;;;;;;5070547;28;20444;-66
2021/06/13 11:10:06;;;;;;;3.70;2.73;;;17.80;1.00;;;;;;5077510;28;20896;-66
2021/06/13 11:12:59;;;;;;;5.87;3.00;;;18.00;1.00;;;;;;5078690;28;20465;-66
2021/06/13 11:15:40;;;;;;;4.10;2.87;;;18.00;1.00;;;;;;5070559;28;20922;-65
2021/06/13 11:18:13;;;;;;;7.33;2.53;;;18.10;1.00;;;;;;5069178;28;20913;-67
2021/06/13 11:20:52;;;;;;;5.13;2.50;;;18.00;1.00;;;;;;5070267;28;20564;-67
2021/06/13 11:23:21;;;;;;;4.70;2.57;;;17.70;1.00;;;;;;5069162;28;20441;-67
2021/06/13 11:25:47;;;;;;;4.17;2.60;;;17.80;1.00;;;;;;5070255;28;20775;-65
2021/06/13 11:28:18;;;;;;;3.70;2.17;;;18.00;1.00;;;;;;5070225;28;20595;-67
2021/06/13 11:30:55;;;;;;;4.77;2.40;;;18.20;1.00;;;;;;5070454;28;20425;-66
2021/06/13 11:33:38;;;;;;;5.47;3.27;;;18.30;1.00;;;;;;5070172;28;21012;-66
2021/06/13 11:36:17;;;;;;;7.13;2.70;;;18.10;1.00;;;;;;5068894;28;20431;-65
2021/06/13 11:38:44;;;;;;;3.00;2.10;;;17.90;1.00;;;;;;5069022;28;20437;-65
2021/06/13 11:41:36;;;;;;;7.17;3.10;;;17.70;1.00;;;;;;5069958;28;20439;-66
2021/06/13 11:44:05;;;;;;;7.27;2.73;;;17.60;1.00;;;;;;5068756;28;20954;-66
2021/06/13 11:46:32;;;;;;;6.50;3.20;;;17.60;1.00;;;;;;5071336;28;20444;-65
2021/06/13 11:48:59;;;;;;;6.03;2.43;;;17.80;1.00;;;;;;5077103;28;20464;-65
2021/06/13 11:51:25;;;;;;;5.60;2.50;;;18.00;1.00;;;;;;5069829;28;20512;-65
2021/06/13 11:54:04;;;;;;;3.80;2.33;;;18.30;1.00;;;;;;5069838;28;20442;-65
2021/06/13 11:56:35;;;;;;;5.80;3.17;;;18.60;1.00;;;;;;5070322;28;20922;-66
2021/06/13 11:59:22;;;;;;;4.40;2.67;;;19.00;1.00;;;;;;5068170;28;20429;-68
2021/06/13 12:01:59;;;;;;;3.63;2.40;;;19.10;1.00;;;;;;5069894;28;20790;-66
2021/06/13 12:04:29;;;;;;;8.83;2.70;;;19.20;1.00;;;;;;5069956;28;20429;-66
2021/06/13 12:06:56;;;;;;;8.07;3.20;;;19.50;1.00;;;;;;5069859;28;20502;-65
2021/06/13 12:09:23;;;;;;;6.17;3.00;;;19.30;1.00;;;;;;5068428;28;20951;-66
2021/06/13 12:11:53;;;;;;;4.00;2.60;;;19.40;1.00;;;;;;5068090;28;20467;-67
2021/06/13 12:14:19;;;;;;;7.70;2.93;;;19.30;1.00;;;;;;5069202;28;20448;-66
2021/06/13 12:16:46;;;;;;;5.00;2.90;;;19.20;1.00;;;;;;5069385;28;20442;-66
2021/06/13 12:19:12;;;;;;;4.43;2.90;;;19.20;1.00;;;;;;5069506;28;20194;-65
2021/06/13 12:21:37;;;;;;;6.80;3.20;;;19.20;1.00;;;;;;5069502;28;20441;-68
2021/06/13 12:29:39;;;;;;;9.50;3.93;;;18.60;1.00;;;;;;5070670;28;20472;-67
2021/06/13 12:32:15;;;;;;;7.00;3.27;;;18.40;1.00;;;;;;5073181;28;20540;-67
2021/06/13 12:34:42;;;;;;;6.07;2.50;;;17.90;1.00;;;;;;5071664;28;20487;-66
2021/06/13 12:37:16;;;;;;;4.73;2.17;;;18.00;1.00;;;;;;5073052;28;20761;-66
2021/06/13 12:39:52;;;;;;;3.80;2.47;;;18.20;1.00;;;;;;5072881;28;20465;-66
2021/06/13 12:42:18;;;;;;;6.87;2.80;;;19.70;1.00;;;;;;5093567;28;20530;-66
2021/06/13 12:44:43;;;;;;;3.77;3.23;;;18.50;1.00;;;;;;5093168;28;20535;-66
2021/06/13 12:47:09;;;;;;;7.70;3.80;;;18.90;1.00;;;;;;5092983;28;20741;-66
2021/06/13 12:49:43;;;;;;;7.67;3.47;;;19.20;1.00;;;;;;5092851;28;20578;-68
2021/06/13 12:52:15;;;;;;;5.23;3.17;;;19.30;1.00;;;;;;5092662;28;20439;-66
2021/06/13 12:54:42;;;;;;;4.93;2.77;;;19.30;1.00;;;;;;5093088;28;20483;-66
2021/06/13 12:57:08;;;;;;;5.40;2.20;;;19.30;1.00;;;;;;5091555;28;20433;-66
2021/06/13 12:59:36;;;;;;;2.80;2.00;;;19.60;1.00;;;;;;5091779;28;20527;-67
2021/06/13 13:02:03;;;;;;;6.10;2.77;;;20.20;1.00;;;;;;5075375;28;20443;-66
2021/06/13 13:04:56;;;;;;;8.10;3.00;;;20.50;1.00;;;;;;5072629;28;20448;-66
2021/06/13 13:07:35;;;;;;;4.50;2.47;;;20.00;1.00;;;;;;5069809;28;20455;-67
2021/06/13 13:10:07;;;;;;;6.90;3.33;;;20.00;1.00;;;;;;5076521;28;20411;-66
2021/06/13 13:12:34;;;;;;;5.37;2.87;;;20.00;1.00;;;;;;5072269;28;20603;-66